createdAt,value
2019-05-28T00:01:07.825Z,48.10
2019-05-28T00:03:39.544Z,48.10
2019-05-28T00:06:11.388Z,49.60
2019-05-28T00:08:43.055Z,51.30
2019-05-28T00:11:14.698Z,52.80
2019-05-28T00:13:46.372Z,51.00
2019-05-28T00:16:18.501Z,52.50
2019-05-28T00:18:50.408Z,55.10
2019-05-28T00:21:22.054Z,56.30
2019-05-28T00:23:53.752Z,56.50
2019-05-28T00:26:25.424Z,56.10
2019-05-28T00:28:57.116Z,58.90
2019-05-28T00:31:28.816Z,59.90
2019-05-28T00:34:00.473Z,59.90
2019-05-28T00:36:33.035Z,61.90
2019-05-28T00:39:06.491Z,64.20
2019-05-28T00:41:38.296Z,64.50
2019-05-28T00:44:10.063Z,66.80
2019-05-28T00:46:41.692Z,69.10
2019-05-28T00:49:13.414Z,71.10
2019-05-28T00:51:45.585Z,73.40
2019-05-28T00:54:17.175Z,73.80
2019-05-28T00:56:50.193Z,75.50
2019-05-28T00:59:22.306Z,77.10
2019-05-28T01:01:53.955Z,78.70
2019-05-28T01:04:25.669Z,79.70
2019-05-28T01:07:00.825Z,83.00
2019-05-28T01:09:32.467Z,83.30
2019-05-28T01:12:04.249Z,87.70
2019-05-28T01:14:35.923Z,89.20
2019-05-28T01:17:07.603Z,90.80
2019-05-28T01:19:39.291Z,91.30
2019-05-28T01:22:10.983Z,92.20
2019-05-28T01:24:42.694Z,93.70
2019-05-28T01:27:14.353Z,94.90
2019-05-28T01:29:46.211Z,96.10
2019-05-28T01:32:17.910Z,96.60
2019-05-28T01:34:49.582Z,97.10
2019-05-28T01:37:21.312Z,97.60
2019-05-28T01:39:52.946Z,97.90
2019-05-28T01:42:24.684Z,98.30
2019-05-28T01:44:56.368Z,99.30
2019-05-28T01:47:28.028Z,99.30
2019-05-28T01:49:59.748Z,99.90
2019-05-28T01:52:31.523Z,99.90
2019-05-28T01:55:03.207Z,99.90
2019-05-28T01:57:34.927Z,99.90
2019-05-28T02:00:07.405Z,99.90
2019-05-28T02:02:39.209Z,99.90
2019-05-28T02:05:12.853Z,99.90
2019-05-28T02:07:44.539Z,99.90
2019-05-28T02:10:16.414Z,99.90
2019-05-28T02:12:48.085Z,99.90
2019-05-28T02:15:20.220Z,99.90
2019-05-28T02:17:52.876Z,99.90
2019-05-28T02:20:24.508Z,99.90
2019-05-28T02:22:56.198Z,99.90
2019-05-28T02:25:27.945Z,99.90
2019-05-28T02:27:59.667Z,99.90
2019-05-28T02:30:31.399Z,99.90
2019-05-28T02:33:03.067Z,99.90
2019-05-28T02:35:34.762Z,99.90
2019-05-28T02:38:06.631Z,99.90
2019-05-28T02:40:38.210Z,99.90
2019-05-28T02:43:09.890Z,99.90
2019-05-28T02:45:41.604Z,99.90
2019-05-28T02:48:13.337Z,99.90
2019-05-28T02:51:06.364Z,99.90
2019-05-28T02:53:37.985Z,99.90
2019-05-28T02:56:09.637Z,99.90
2019-05-28T02:58:41.292Z,99.90
2019-05-28T03:01:13.029Z,99.90
2019-05-28T03:03:47.564Z,99.90
2019-05-28T03:06:20.844Z,99.90
2019-05-28T03:08:55.547Z,99.90
2019-05-28T03:11:27.346Z,99.90
2019-05-28T03:13:59.033Z,99.90
2019-05-28T03:16:33.703Z,99.90
2019-05-28T03:19:06.231Z,99.90
2019-05-28T03:21:38.978Z,99.90
2019-05-28T03:24:12.555Z,99.90
2019-05-28T03:26:44.190Z,99.90
2019-05-28T03:29:15.841Z,99.90
2019-05-28T03:32:05.802Z,99.90
2019-05-28T03:34:20.977Z,99.90
2019-05-28T03:36:54.813Z,99.90
2019-05-28T03:39:29.828Z,99.90
2019-05-28T03:42:01.483Z,99.90
2019-05-28T03:44:33.119Z,99.90
2019-05-28T03:47:04.843Z,99.90
2019-05-28T03:49:36.520Z,99.90
2019-05-28T03:52:08.251Z,99.90
2019-05-28T03:54:39.905Z,99.90
2019-05-28T03:57:11.597Z,99.90
2019-05-28T03:59:43.257Z,99.90
2019-05-28T04:02:23.548Z,99.90
2019-05-28T04:04:48.337Z,99.90
2019-05-28T04:07:20.045Z,99.90
2019-05-28T04:09:51.676Z,99.90
2019-05-28T04:12:24.324Z,99.90
2019-05-28T04:14:55.975Z,99.90
2019-05-28T04:17:27.631Z,99.90
2019-05-28T04:19:59.317Z,99.90
2019-05-28T04:22:31.090Z,99.90
2019-05-28T04:25:02.775Z,99.90
2019-05-28T04:27:34.613Z,99.90
2019-05-28T04:30:06.673Z,99.90
2019-05-28T04:32:41.181Z,99.90
2019-05-28T04:35:12.049Z,99.90
2019-05-28T04:37:43.771Z,99.90
2019-05-28T04:40:15.697Z,99.90
2019-05-28T04:42:48.943Z,99.90
2019-05-28T04:45:20.593Z,99.90
2019-05-28T04:47:52.298Z,99.90
2019-05-28T04:50:23.998Z,99.90
2019-05-28T04:52:55.699Z,99.90
2019-05-28T04:55:27.492Z,99.90
2019-05-28T04:57:59.629Z,99.90
2019-05-28T05:00:31.390Z,99.90
2019-05-28T05:03:03.308Z,99.90
2019-05-28T05:05:35.104Z,99.90
2019-05-28T05:08:07.242Z,99.90
2019-05-28T05:10:38.975Z,99.90
2019-05-28T05:13:10.684Z,99.90
2019-05-28T05:15:42.593Z,99.90
2019-05-28T05:18:14.407Z,99.90
2019-05-28T05:20:46.198Z,99.90
2019-05-28T05:23:18.126Z,99.90
2019-05-28T05:25:49.943Z,99.90
2019-05-28T05:28:21.760Z,99.90
2019-05-28T05:30:53.463Z,99.90
2019-05-28T05:33:25.234Z,99.90
2019-05-28T05:35:59.223Z,99.90
2019-05-28T05:38:31.977Z,98.30
2019-05-28T05:41:04.724Z,95.60
2019-05-28T05:43:36.563Z,92.50
2019-05-28T05:46:08.326Z,92.10
2019-05-28T05:48:42.526Z,96.70
2019-05-28T05:51:14.516Z,88.00
2019-05-28T05:53:46.214Z,82.20
2019-05-28T05:56:18.258Z,80.10
2019-05-28T05:58:50.245Z,71.30
2019-05-28T06:01:22.083Z,68.10
2019-05-28T06:03:53.761Z,62.80
2019-05-28T06:06:26.759Z,67.10
2019-05-28T06:08:59.939Z,69.70
2019-05-28T06:11:31.839Z,73.40
2019-05-28T06:14:03.758Z,72.80
2019-05-28T06:16:35.656Z,65.60
2019-05-28T06:19:07.424Z,66.30
2019-05-28T06:21:39.442Z,62.00
2019-05-28T06:24:11.239Z,67.40
2019-05-28T06:26:43.142Z,69.10
2019-05-28T06:29:14.970Z,73.00
2019-05-28T06:31:46.717Z,73.40
2019-05-28T06:34:18.564Z,74.60
2019-05-28T06:36:50.274Z,67.00
2019-05-28T06:39:26.123Z,64.20
2019-05-28T06:41:58.070Z,67.10
2019-05-28T06:44:30.101Z,66.70
2019-05-28T06:47:01.767Z,70.90
2019-05-28T06:49:33.618Z,68.30
2019-05-28T06:52:05.379Z,70.50
2019-05-28T06:54:37.228Z,67.20
2019-05-28T06:57:22.379Z,67.80
2019-05-28T06:59:42.394Z,54.10
2019-05-28T07:02:14.079Z,56.00
2019-05-28T07:04:47.426Z,57.10
2019-05-28T07:07:19.220Z,52.70
2019-05-28T07:09:51.041Z,49.40
2019-05-28T07:12:22.738Z,47.70
2019-05-28T07:14:54.573Z,42.30
2019-05-28T07:17:26.392Z,41.50
2019-05-28T07:19:58.294Z,41.90
2019-05-28T07:22:30.089Z,42.10
2019-05-28T07:25:01.926Z,40.20
2019-05-28T07:27:35.004Z,35.80
2019-05-28T07:30:07.098Z,31.50
2019-05-28T07:32:38.980Z,33.30
2019-05-28T07:35:11.705Z,30.00
2019-05-28T07:37:43.415Z,29.40
2019-05-28T07:40:30.520Z,28.30
2019-05-28T07:42:49.153Z,26.00
2019-05-28T07:45:20.856Z,27.90
2019-05-28T07:47:52.593Z,24.90
2019-05-28T07:50:24.326Z,27.50
2019-05-28T07:52:56.131Z,25.00
2019-05-28T07:55:27.975Z,26.40
2019-05-28T07:57:59.802Z,22.50
2019-05-28T08:00:39.831Z,20.20
2019-05-28T08:03:12.084Z,21.10
2019-05-28T08:05:43.923Z,18.80
2019-05-28T08:08:18.921Z,20.60
2019-05-28T08:10:51.252Z,18.50
2019-05-28T08:13:37.502Z,18.70
2019-05-28T08:16:14.758Z,18.70
2019-05-28T08:18:30.315Z,18.70
2019-05-28T08:21:02.222Z,18.60
2019-05-28T08:23:34.084Z,18.60
2019-05-28T08:26:05.746Z,18.10
2019-05-28T08:28:37.644Z,14.00
2019-05-28T08:31:17.302Z,19.10
2019-05-28T08:33:43.696Z,11.40
2019-05-28T08:36:15.540Z,10.10
2019-05-28T08:38:47.259Z,9.90
2019-05-28T08:41:19.093Z,8.30
2019-05-28T08:43:50.814Z,4.70
2019-05-28T08:46:22.846Z,5.90
2019-05-28T08:48:54.574Z,7.00
2019-05-28T08:51:27.276Z,5.90
2019-05-28T08:53:59.250Z,6.00
2019-05-28T08:56:30.994Z,2.80
2019-05-28T08:59:03.002Z,2.60
2019-05-28T09:01:34.872Z,1.00
2019-05-28T09:04:06.646Z,1.00
2019-05-28T09:06:38.506Z,2.10
2019-05-28T09:09:10.154Z,1.00
2019-05-28T09:11:42.300Z,1.00
2019-05-28T09:14:13.964Z,1.00
2019-05-28T09:16:45.838Z,1.00
2019-05-28T09:19:17.525Z,1.00
2019-05-28T09:21:49.274Z,1.00
2019-05-28T09:24:21.054Z,1.00
2019-05-28T09:26:52.814Z,1.00
2019-05-28T09:29:24.481Z,1.00
2019-05-28T09:31:56.260Z,1.00
2019-05-28T09:34:27.938Z,1.00
2019-05-28T09:36:59.638Z,1.00
2019-05-28T09:39:31.331Z,1.00
2019-05-28T09:42:03.128Z,1.00
2019-05-28T09:44:34.820Z,1.00
2019-05-28T09:47:06.611Z,1.00
2019-05-28T09:49:38.714Z,1.00
2019-05-28T09:52:10.499Z,1.00
2019-05-28T09:54:42.297Z,1.00
2019-05-28T09:57:13.989Z,1.00
2019-05-28T09:59:46.426Z,1.00
2019-05-28T10:02:18.636Z,1.00
2019-05-28T10:04:50.544Z,1.00
2019-05-28T10:07:22.630Z,1.00
2019-05-28T10:09:54.626Z,1.00
2019-05-28T10:12:26.607Z,1.00
2019-05-28T10:14:58.516Z,1.00
2019-05-28T10:17:30.371Z,1.00
2019-05-28T10:20:02.147Z,1.00
2019-05-28T10:22:34.086Z,1.00
2019-05-28T10:25:06.349Z,1.00
2019-05-28T10:27:38.048Z,1.00
2019-05-28T10:30:12.417Z,1.00
2019-05-28T10:32:44.219Z,1.00
2019-05-28T10:35:16.647Z,1.00
2019-05-28T10:37:49.018Z,1.00
2019-05-28T10:40:21.249Z,1.00
2019-05-28T10:42:53.041Z,1.00
2019-05-28T10:45:26.101Z,1.00
2019-05-28T10:47:57.869Z,1.00
2019-05-28T10:50:29.564Z,1.00
2019-05-28T10:53:01.355Z,1.00
2019-05-28T10:55:33.011Z,1.00
2019-05-28T10:58:04.867Z,1.00
2019-05-28T11:00:36.495Z,1.00
2019-05-28T11:03:08.185Z,1.00
2019-05-28T11:05:39.897Z,1.00
2019-05-28T11:08:11.693Z,1.00
2019-05-28T11:10:43.486Z,1.00
2019-05-28T11:13:15.194Z,1.00
2019-05-28T11:15:47.949Z,1.00
2019-05-28T11:18:19.708Z,1.00
2019-05-28T11:20:51.436Z,1.00
2019-05-28T11:23:23.135Z,1.00
2019-05-28T11:25:55.287Z,1.00
2019-05-28T11:28:27.214Z,1.00
2019-05-28T11:30:59.131Z,1.00
2019-05-28T11:33:30.933Z,1.00
2019-05-28T11:36:03.581Z,1.00
2019-05-28T11:38:36.670Z,1.00
2019-05-28T11:41:08.351Z,1.00
2019-05-28T11:43:40.172Z,1.00
2019-05-28T11:46:12.015Z,1.00
2019-05-28T11:48:43.960Z,1.00
2019-05-28T11:51:15.740Z,1.00
2019-05-28T11:53:47.872Z,1.00
2019-05-28T11:56:19.470Z,1.00
2019-05-28T11:58:51.386Z,1.00
2019-05-28T12:01:34.019Z,1.00
2019-05-28T12:03:56.543Z,1.00
2019-05-28T12:06:28.364Z,1.00
2019-05-28T12:09:00.235Z,1.00
2019-05-28T12:11:32.034Z,1.00
2019-05-28T12:14:03.830Z,1.00
2019-05-28T12:16:35.717Z,1.00
2019-05-28T12:19:07.488Z,1.00
2019-05-28T12:21:39.297Z,1.00
2019-05-28T12:24:11.312Z,1.00
2019-05-28T12:26:44.952Z,1.00
2019-05-28T12:29:16.962Z,1.00
2019-05-28T12:31:48.828Z,1.00
2019-05-28T12:34:20.687Z,1.00
2019-05-28T12:36:52.660Z,1.00
2019-05-28T12:39:24.520Z,1.00
2019-05-28T12:42:03.087Z,1.00
2019-05-28T12:44:41.445Z,1.00
2019-05-28T12:47:03.679Z,1.00
2019-05-28T12:49:35.547Z,1.00
2019-05-28T12:52:07.280Z,1.00
2019-05-28T12:54:39.360Z,1.00
2019-05-28T12:57:11.153Z,1.00
2019-05-28T12:59:43.177Z,1.00
2019-05-28T13:02:14.978Z,1.00
2019-05-28T13:04:47.052Z,1.00
2019-05-28T13:07:18.966Z,1.00
2019-05-28T13:09:50.944Z,1.00
2019-05-28T13:12:22.653Z,1.00
2019-05-28T13:14:54.473Z,1.00
2019-05-28T13:17:26.122Z,1.00
2019-05-28T13:19:57.899Z,1.00
2019-05-28T13:22:29.659Z,1.00
2019-05-28T13:25:01.796Z,1.00
2019-05-28T13:27:33.876Z,1.00
2019-05-28T13:30:06.501Z,1.00
2019-05-28T13:32:38.492Z,1.00
2019-05-28T13:35:14.479Z,1.00
2019-05-28T13:37:46.277Z,1.00
2019-05-28T13:40:18.788Z,1.00
2019-05-28T13:42:51.822Z,1.00
2019-05-28T13:45:24.918Z,1.00
2019-05-28T13:47:56.759Z,1.00
2019-05-28T13:50:29.483Z,1.00
2019-05-28T13:53:01.372Z,1.00
2019-05-28T13:55:33.450Z,1.00
2019-05-28T13:58:05.322Z,1.00
2019-05-28T14:00:38.249Z,1.00
2019-05-28T14:03:10.986Z,1.00
2019-05-28T14:05:42.839Z,1.00
2019-05-28T14:08:14.557Z,1.00
2019-05-28T14:10:46.499Z,1.00
2019-05-28T14:13:18.269Z,1.00
2019-05-28T14:15:50.038Z,1.00
2019-05-28T14:18:21.692Z,1.00
2019-05-28T14:20:53.621Z,1.00
2019-05-28T14:23:25.375Z,1.00
2019-05-28T14:25:57.038Z,1.00
2019-05-28T14:28:29.882Z,1.00
2019-05-28T14:31:01.633Z,1.00
2019-05-28T14:33:33.491Z,1.00
2019-05-28T14:36:05.532Z,1.00
2019-05-28T14:38:37.349Z,1.00
2019-05-28T14:41:09.150Z,1.00
2019-05-28T14:43:40.910Z,1.00
2019-05-28T14:46:12.639Z,1.00
2019-05-28T14:48:44.315Z,1.00
2019-05-28T14:51:16.055Z,1.00
2019-05-28T14:53:47.753Z,1.00
2019-05-28T14:56:19.468Z,1.00
2019-05-28T14:58:51.244Z,1.00
2019-05-28T15:01:22.891Z,1.00
2019-05-28T15:03:54.596Z,1.00
2019-05-28T15:06:26.347Z,1.00
2019-05-28T15:08:58.497Z,1.00
2019-05-28T15:11:30.217Z,1.00
2019-05-28T15:14:02.108Z,1.00
2019-05-28T15:16:34.194Z,1.00
2019-05-28T15:19:06.039Z,1.00
2019-05-28T15:21:37.868Z,1.00
2019-05-28T15:24:09.690Z,1.00
2019-05-28T15:26:41.614Z,1.00
2019-05-28T15:29:13.452Z,1.00
2019-05-28T15:31:45.235Z,1.00
2019-05-28T15:34:17.126Z,1.00
2019-05-28T15:36:48.808Z,1.00
2019-05-28T15:39:38.319Z,1.00
2019-05-28T15:41:53.826Z,1.00
2019-05-28T15:44:25.751Z,1.00
2019-05-28T15:46:57.590Z,1.00
2019-05-28T15:49:29.497Z,1.00
2019-05-28T15:52:07.778Z,1.00
2019-05-28T15:54:34.917Z,1.00
2019-05-28T15:57:07.009Z,1.00
2019-05-28T15:59:38.729Z,1.00
2019-05-28T16:02:10.720Z,1.00
2019-05-28T16:04:42.509Z,1.00
2019-05-28T16:07:14.351Z,1.00
2019-05-28T16:09:55.721Z,1.00
2019-05-28T16:12:19.607Z,1.00
2019-05-28T16:14:52.423Z,1.00
2019-05-28T16:17:24.287Z,1.00
2019-05-28T16:19:56.069Z,1.00
2019-05-28T16:22:27.839Z,1.00
2019-05-28T16:24:59.612Z,1.00
2019-05-28T16:27:32.135Z,1.00
2019-05-28T16:30:04.881Z,1.00
2019-05-28T16:32:37.034Z,1.00
2019-05-28T16:35:08.997Z,1.00
2019-05-28T16:37:40.811Z,1.00
2019-05-28T16:40:16.272Z,1.00
2019-05-28T16:42:47.515Z,1.00
2019-05-28T16:45:22.439Z,1.00
2019-05-28T16:47:54.915Z,1.00
2019-05-28T16:50:26.796Z,1.00
2019-05-28T16:52:58.613Z,1.00
2019-05-28T16:55:30.477Z,1.00
2019-05-28T16:58:02.160Z,1.00
2019-05-28T17:00:36.312Z,1.00
2019-05-28T17:03:12.100Z,1.00
2019-05-28T17:05:44.268Z,1.00
2019-05-28T17:08:16.194Z,1.00
2019-05-28T17:10:48.191Z,1.00
2019-05-28T17:13:21.601Z,1.00
2019-05-28T17:15:53.282Z,1.00
2019-05-28T17:18:25.371Z,1.00
2019-05-28T17:20:57.189Z,1.00
2019-05-28T17:23:29.819Z,1.00
2019-05-28T17:26:01.901Z,1.00
2019-05-28T17:28:33.956Z,1.00
2019-05-28T17:31:05.677Z,1.00
2019-05-28T17:33:37.748Z,1.00
2019-05-28T17:36:09.442Z,1.00
2019-05-28T17:38:41.182Z,1.00
2019-05-28T17:41:13.851Z,1.00
2019-05-28T17:43:45.682Z,1.00
2019-05-28T17:46:17.387Z,1.00
2019-05-28T17:48:49.231Z,1.00
2019-05-28T17:51:21.105Z,1.00
2019-05-28T17:53:52.920Z,1.00
2019-05-28T17:56:24.706Z,1.00
2019-05-28T17:58:56.381Z,1.00
2019-05-28T18:01:29.990Z,1.00
2019-05-28T18:04:02.002Z,1.00
2019-05-28T18:06:33.756Z,1.00
2019-05-28T18:09:07.145Z,1.00
2019-05-28T18:11:39.053Z,1.00
2019-05-28T18:14:10.941Z,1.00
2019-05-28T18:16:42.692Z,1.00
2019-05-28T18:19:14.608Z,1.00
2019-05-28T18:21:46.485Z,1.00
2019-05-28T18:24:18.637Z,1.00
2019-05-28T18:26:50.505Z,1.00
2019-05-28T18:29:22.256Z,1.00
2019-05-28T18:31:54.002Z,1.00
2019-05-28T18:34:29.133Z,1.00
2019-05-28T18:37:00.958Z,1.00
2019-05-28T18:39:33.153Z,1.00
2019-05-28T18:42:05.746Z,1.00
2019-05-28T18:44:37.824Z,1.00
2019-05-28T18:47:10.012Z,1.00
2019-05-28T18:49:41.703Z,1.00
2019-05-28T18:52:13.513Z,1.00
2019-05-28T18:54:45.312Z,1.00
2019-05-28T18:57:18.259Z,1.00
2019-05-28T18:59:50.106Z,1.00
2019-05-28T19:02:21.806Z,1.00
2019-05-28T19:04:53.886Z,1.00
2019-05-28T19:07:25.866Z,1.00
2019-05-28T19:09:57.814Z,1.00
2019-05-28T19:12:29.777Z,1.00
2019-05-28T19:15:01.498Z,1.00
2019-05-28T19:17:33.367Z,1.00
2019-05-28T19:20:05.563Z,1.00
2019-05-28T19:22:37.350Z,1.00
2019-05-28T19:25:10.378Z,1.00
2019-05-28T19:27:42.175Z,1.20
2019-05-28T19:30:17.144Z,1.90
2019-05-28T19:32:49.115Z,1.90
2019-05-28T19:35:20.881Z,2.60
2019-05-28T19:37:52.975Z,2.20
2019-05-28T19:40:38.595Z,2.70
2019-05-28T19:43:11.210Z,4.00
2019-05-28T19:45:43.405Z,4.60
2019-05-28T19:48:16.336Z,5.90
2019-05-28T19:50:48.066Z,6.10
2019-05-28T19:53:19.834Z,6.80
2019-05-28T19:55:51.626Z,7.80
2019-05-28T19:58:23.704Z,8.20
2019-05-28T20:00:55.426Z,8.70
2019-05-28T20:03:27.535Z,10.30
2019-05-28T20:06:00.351Z,10.40
2019-05-28T20:08:32.106Z,11.30
2019-05-28T20:11:05.185Z,12.50
2019-05-28T20:13:36.951Z,15.50
2019-05-28T20:16:08.852Z,16.50
2019-05-28T20:18:40.568Z,16.90
2019-05-28T20:21:12.385Z,16.90
2019-05-28T20:23:44.068Z,16.90
2019-05-28T20:26:15.892Z,18.80
2019-05-28T20:28:47.771Z,20.70
2019-05-28T20:31:19.592Z,21.00
2019-05-28T20:33:51.406Z,21.90
2019-05-28T20:36:23.159Z,22.20
2019-05-28T20:38:55.088Z,22.10
2019-05-28T20:41:26.982Z,22.10
2019-05-28T20:44:00.259Z,21.30
2019-05-28T20:46:33.462Z,21.70
2019-05-28T20:49:06.666Z,22.80
2019-05-28T20:51:38.423Z,22.50
2019-05-28T20:54:10.179Z,22.90
2019-05-28T20:56:42.006Z,23.90
2019-05-28T20:59:13.733Z,24.00
2019-05-28T21:01:45.442Z,24.40
2019-05-28T21:04:17.108Z,25.00
2019-05-28T21:06:50.222Z,25.30
2019-05-28T21:09:22.071Z,26.00
2019-05-28T21:11:54.523Z,27.00
2019-05-28T21:14:26.261Z,27.90
2019-05-28T21:16:59.162Z,26.60
2019-05-28T21:19:31.004Z,27.70
2019-05-28T21:22:02.702Z,26.90
2019-05-28T21:24:35.403Z,28.40
2019-05-28T21:27:07.145Z,28.70
2019-05-28T21:29:38.820Z,29.40
2019-05-28T21:32:12.528Z,31.10
2019-05-28T21:34:45.521Z,33.30
2019-05-28T21:37:17.170Z,34.30
2019-05-28T21:39:48.833Z,35.60
2019-05-28T21:42:20.529Z,35.90
2019-05-28T21:44:52.320Z,36.80
2019-05-28T21:47:24.034Z,51.30
2019-05-28T21:49:58.515Z,39.80
2019-05-28T21:52:31.279Z,39.10
2019-05-28T21:55:04.844Z,41.10
2019-05-28T21:57:36.321Z,41.40
2019-05-28T22:00:19.117Z,43.00
2019-05-28T22:02:52.353Z,45.50
2019-05-28T22:05:23.972Z,46.60
2019-05-28T22:07:55.729Z,47.30
2019-05-28T22:10:30.621Z,47.60
2019-05-28T22:13:16.402Z,50.50
2019-05-28T22:15:35.572Z,49.90
2019-05-28T22:18:08.441Z,51.00
2019-05-28T22:20:40.290Z,51.90
2019-05-28T22:23:12.003Z,53.40
2019-05-28T22:25:43.733Z,51.20
2019-05-28T22:28:15.411Z,55.30
2019-05-28T22:30:47.361Z,54.20
2019-05-28T22:33:19.011Z,54.90
2019-05-28T22:35:50.831Z,57.50
2019-05-28T22:38:22.526Z,58.40
2019-05-28T22:40:54.238Z,60.50
2019-05-28T22:43:31.698Z,62.50
2019-05-28T22:46:01.256Z,64.60
2019-05-28T22:48:33.189Z,64.90
2019-05-28T22:51:05.643Z,64.50
2019-05-28T22:53:40.231Z,63.60
2019-05-28T22:56:10.624Z,65.40
2019-05-28T22:58:42.229Z,66.70
2019-05-28T23:01:13.894Z,65.90
2019-05-28T23:03:45.534Z,68.90
2019-05-28T23:06:17.340Z,71.20
2019-05-28T23:08:48.988Z,72.20
2019-05-28T23:11:20.635Z,73.60
2019-05-28T23:13:52.577Z,73.40
2019-05-28T23:16:24.267Z,76.00
2019-05-28T23:18:55.980Z,77.10
2019-05-28T23:21:27.699Z,75.20
2019-05-28T23:23:59.557Z,76.50
2019-05-28T23:26:31.559Z,78.90
2019-05-28T23:29:03.699Z,78.80
2019-05-28T23:31:36.248Z,79.00
2019-05-28T23:34:08.416Z,80.60
2019-05-28T23:36:41.373Z,79.80
2019-05-28T23:39:13.354Z,81.40
2019-05-28T23:41:45.122Z,81.90
2019-05-28T23:44:16.832Z,80.70
2019-05-28T23:46:48.594Z,80.60
2019-05-28T23:49:20.243Z,83.40
2019-05-28T23:51:51.972Z,81.20
2019-05-28T23:54:23.683Z,82.30
2019-05-28T23:56:55.404Z,83.00
2019-05-28T23:59:27.066Z,82.30
